createdAt,value
2018-12-24T00:01:23.185Z,9.57
2018-12-24T00:05:35.992Z,9.17
2018-12-24T00:09:49.041Z,8.87
2018-12-24T00:14:02.220Z,9.07
2018-12-24T00:18:14.997Z,9.73
2018-12-24T00:22:28.236Z,10.23
2018-12-24T00:26:41.061Z,9.73
2018-12-24T00:30:54.116Z,9.43
2018-12-24T00:35:07.169Z,10.53
2018-12-24T00:39:19.940Z,10.07
2018-12-24T00:43:33.068Z,9.37
2018-12-24T00:47:45.892Z,9.77
2018-12-24T00:51:59.160Z,10.33
2018-12-24T00:56:12.427Z,10.03
2018-12-24T01:00:26.328Z,10.77
2018-12-24T01:04:39.456Z,10.30
2018-12-24T01:08:52.269Z,9.47
2018-12-24T01:13:05.443Z,9.20
2018-12-24T01:17:18.697Z,9.50
2018-12-24T01:21:31.473Z,9.10
2018-12-24T01:25:44.668Z,9.70
2018-12-24T01:29:57.988Z,9.17
2018-12-24T01:34:10.747Z,9.63
2018-12-24T01:38:23.892Z,9.33
2018-12-24T01:42:37.171Z,8.17
2018-12-24T01:46:49.945Z,9.37
2018-12-24T01:51:03.318Z,9.20
2018-12-24T01:55:16.119Z,8.67
2018-12-24T01:59:29.204Z,8.23
2018-12-24T02:03:42.989Z,9.20
2018-12-24T02:07:56.120Z,8.47
2018-12-24T02:12:09.409Z,9.07
2018-12-24T02:16:22.201Z,9.23
2018-12-24T02:20:35.268Z,9.93
2018-12-24T02:24:48.032Z,9.13
2018-12-24T02:29:01.279Z,9.43
2018-12-24T02:33:14.365Z,10.43
2018-12-24T02:37:27.112Z,8.47
2018-12-24T02:41:40.213Z,9.60
2018-12-24T02:45:52.979Z,9.77
2018-12-24T02:50:06.250Z,9.03
2018-12-24T02:54:19.399Z,8.70
2018-12-24T02:58:32.071Z,8.63
2018-12-24T03:02:45.278Z,9.37
2018-12-24T03:06:58.034Z,9.37
2018-12-24T03:11:11.162Z,9.43
2018-12-24T03:15:24.343Z,7.83
2018-12-24T03:19:37.104Z,9.77
2018-12-24T03:23:50.151Z,8.60
2018-12-24T03:28:03.001Z,9.60
2018-12-24T03:32:16.454Z,9.37
2018-12-24T03:36:29.551Z,8.93
2018-12-24T03:40:43.398Z,9.10
2018-12-24T03:44:56.519Z,9.23
2018-12-24T03:49:09.349Z,9.40
2018-12-24T03:53:22.505Z,8.87
2018-12-24T03:57:35.780Z,9.60
2018-12-24T04:01:49.874Z,9.90
2018-12-24T04:06:03.130Z,9.30
2018-12-24T04:10:15.932Z,10.30
2018-12-24T04:14:29.137Z,10.20
2018-12-24T04:18:41.905Z,10.87
2018-12-24T04:22:54.928Z,9.27
2018-12-24T04:27:08.121Z,9.87
2018-12-24T04:31:20.974Z,9.90
2018-12-24T04:35:34.089Z,9.87
2018-12-24T04:39:47.306Z,9.87
2018-12-24T04:44:00.078Z,9.30
2018-12-24T04:48:13.212Z,10.10
2018-12-24T04:52:26.257Z,8.97
2018-12-24T04:56:39.262Z,9.57
2018-12-24T05:00:52.455Z,9.37
2018-12-24T05:05:05.229Z,9.67
2018-12-24T05:09:18.944Z,9.63
2018-12-24T05:13:40.667Z,9.17
2018-12-24T05:17:46.349Z,9.57
2018-12-24T05:21:59.385Z,9.70
2018-12-24T05:26:12.577Z,9.77
2018-12-24T05:30:26.675Z,10.07
2018-12-24T05:34:41.837Z,10.03
2018-12-24T05:38:55.305Z,11.03
2018-12-24T05:43:10.480Z,10.47
2018-12-24T05:47:23.191Z,10.83
2018-12-24T05:51:36.321Z,9.33
2018-12-24T05:55:49.650Z,10.30
2018-12-24T06:00:02.591Z,10.17
2018-12-24T06:04:15.665Z,11.43
2018-12-24T06:08:28.812Z,12.00
2018-12-24T06:12:41.640Z,10.57
2018-12-24T06:16:54.664Z,11.63
2018-12-24T06:21:08.663Z,11.77
2018-12-24T06:25:21.754Z,12.57
2018-12-24T06:29:35.848Z,12.67
2018-12-24T06:33:49.039Z,12.83
2018-12-24T06:38:01.803Z,12.00
2018-12-24T06:42:15.012Z,12.40
2018-12-24T06:46:27.763Z,11.53
2018-12-24T06:50:42.445Z,12.43
2018-12-24T06:54:55.289Z,12.13
2018-12-24T06:59:08.286Z,12.90
2018-12-24T07:03:21.432Z,16.03
2018-12-24T07:07:34.145Z,18.60
2018-12-24T07:11:47.276Z,20.63
2018-12-24T07:16:00.220Z,23.07
2018-12-24T07:20:13.244Z,18.57
2018-12-24T07:24:26.425Z,17.50
2018-12-24T07:28:39.195Z,18.43
2018-12-24T07:32:52.215Z,17.57
2018-12-24T07:37:04.932Z,17.50
2018-12-24T07:41:17.985Z,16.37
2018-12-24T07:45:31.128Z,13.93
2018-12-24T07:49:45.168Z,10.53
2018-12-24T07:53:58.137Z,9.27
2018-12-24T07:58:11.111Z,9.37
2018-12-24T08:02:24.357Z,14.30
2018-12-24T08:06:37.088Z,13.43
2018-12-24T08:10:50.112Z,11.30
2018-12-24T08:15:03.402Z,10.07
2018-12-24T08:19:17.241Z,7.23
2018-12-24T08:23:30.008Z,7.30
2018-12-24T08:27:43.043Z,7.63
2018-12-24T08:31:55.964Z,6.93
2018-12-24T08:36:09.101Z,8.60
2018-12-24T08:40:22.293Z,8.57
2018-12-24T08:44:41.755Z,8.33
2018-12-24T08:48:49.897Z,7.13
2018-12-24T08:53:02.851Z,9.60
2018-12-24T08:57:16.012Z,9.47
2018-12-24T09:01:29.233Z,12.70
2018-12-24T09:05:42.043Z,11.73
2018-12-24T09:09:55.095Z,10.80
2018-12-24T09:14:08.740Z,9.90
2018-12-24T09:18:21.532Z,9.93
2018-12-24T09:22:34.475Z,9.20
2018-12-24T09:26:47.577Z,9.93
2018-12-24T09:31:01.657Z,9.47
2018-12-24T09:35:14.501Z,12.00
2018-12-24T09:39:27.533Z,10.67
2018-12-24T09:43:40.704Z,11.07
2018-12-24T09:47:53.376Z,10.17
2018-12-24T09:52:06.682Z,10.77
2018-12-24T09:56:19.601Z,10.37
2018-12-24T10:00:32.738Z,12.30
2018-12-24T10:04:54.477Z,11.43
2018-12-24T10:09:12.109Z,12.37
2018-12-24T10:13:25.290Z,12.73
2018-12-24T10:17:38.100Z,11.53
2018-12-24T10:21:51.312Z,12.80
2018-12-24T10:26:04.592Z,11.37
2018-12-24T10:30:18.517Z,11.30
2018-12-24T10:34:31.608Z,11.40
2018-12-24T10:38:44.380Z,12.93
2018-12-24T10:42:57.516Z,16.97
2018-12-24T10:47:10.241Z,15.67
2018-12-24T10:51:23.432Z,15.37
2018-12-24T10:55:36.854Z,15.03
2018-12-24T10:59:49.623Z,13.40
2018-12-24T11:04:02.656Z,15.67
2018-12-24T11:08:15.843Z,16.73
2018-12-24T11:12:29.848Z,14.87
2018-12-24T11:16:42.577Z,14.27
2018-12-24T11:20:55.789Z,13.27
2018-12-24T11:25:09.002Z,13.47
2018-12-24T11:29:22.333Z,14.03
2018-12-24T11:33:36.453Z,15.07
2018-12-24T11:37:49.617Z,14.37
2018-12-24T11:42:02.389Z,13.93
2018-12-24T11:46:15.524Z,12.40
2018-12-24T11:50:29.471Z,13.20
2018-12-24T11:54:42.773Z,13.53
2018-12-24T11:58:55.689Z,12.87
2018-12-24T12:03:08.776Z,13.27
2018-12-24T12:07:21.944Z,12.90
2018-12-24T12:11:34.627Z,13.60
2018-12-24T12:15:47.752Z,14.37
2018-12-24T12:20:02.161Z,13.80
2018-12-24T12:24:15.224Z,11.67
2018-12-24T12:28:28.325Z,9.00
2018-12-24T12:32:41.029Z,9.53
2018-12-24T12:36:54.136Z,7.53
2018-12-24T12:41:07.425Z,9.50
2018-12-24T12:46:15.356Z,9.43
2018-12-24T12:50:29.041Z,8.90
2018-12-24T12:54:41.508Z,8.50
2018-12-24T12:58:54.305Z,8.03
2018-12-24T13:03:06.765Z,8.47
2018-12-24T13:07:19.167Z,9.00
2018-12-24T13:11:32.066Z,8.37
2018-12-24T13:15:44.536Z,8.23
2018-12-24T13:19:57.405Z,8.17
2018-12-24T13:24:09.860Z,8.67
2018-12-24T13:28:22.361Z,8.60
2018-12-24T13:32:35.819Z,7.87
2018-12-24T13:36:48.129Z,8.40
2018-12-24T13:41:01.126Z,8.57
2018-12-24T13:45:15.344Z,8.17
2018-12-24T13:49:29.121Z,8.77
2018-12-24T13:53:42.256Z,8.43
2018-12-24T13:57:54.680Z,8.80
2018-12-24T14:02:07.396Z,7.93
2018-12-24T14:06:19.858Z,8.33
2018-12-24T14:10:32.265Z,8.37
2018-12-24T14:14:45.161Z,7.87
2018-12-24T14:18:57.668Z,8.73
2018-12-24T14:23:11.647Z,8.37
2018-12-24T14:27:24.517Z,8.43
2018-12-24T14:31:37.183Z,7.47
2018-12-24T14:35:49.996Z,8.53
2018-12-24T14:40:02.457Z,8.37
2018-12-24T14:44:14.856Z,8.13
2018-12-24T14:48:27.721Z,7.83
2018-12-24T14:52:40.212Z,7.53
2018-12-24T14:56:52.621Z,8.57
2018-12-24T15:01:05.483Z,8.40
2018-12-24T15:05:18.324Z,8.87
2018-12-24T15:09:31.061Z,8.97
2018-12-24T15:13:44.390Z,8.40
2018-12-24T15:17:57.421Z,8.80
2018-12-24T15:22:10.256Z,8.83
2018-12-24T15:26:22.708Z,8.83
2018-12-24T15:30:35.089Z,8.97
2018-12-24T15:34:48.360Z,9.83
2018-12-24T15:39:00.818Z,9.47
2018-12-24T15:43:13.564Z,9.53
2018-12-24T15:47:26.117Z,9.30
2018-12-24T15:51:38.598Z,9.60
2018-12-24T15:55:52.548Z,10.37
2018-12-24T16:00:05.314Z,10.20
2018-12-24T16:04:20.062Z,10.17
2018-12-24T16:08:33.617Z,9.37
2018-12-24T16:12:46.040Z,9.60
2018-12-24T16:16:58.380Z,11.87
2018-12-24T16:21:11.140Z,14.57
2018-12-24T16:25:23.600Z,14.13
2018-12-24T16:29:37.145Z,14.03
2018-12-24T16:33:49.635Z,14.33
2018-12-24T16:38:02.444Z,11.87
2018-12-24T16:42:16.129Z,10.27
2018-12-24T16:46:28.756Z,11.97
2018-12-24T16:50:41.692Z,13.33
2018-12-24T16:54:54.196Z,12.07
2018-12-24T16:59:07.010Z,13.57
2018-12-24T17:03:19.788Z,13.57
2018-12-24T17:07:32.223Z,13.80
2018-12-24T17:11:45.063Z,14.43
2018-12-24T17:15:57.603Z,14.77
2018-12-24T17:20:11.166Z,13.90
2018-12-24T17:24:23.579Z,14.47
2018-12-24T17:28:36.436Z,12.23
2018-12-24T17:32:48.919Z,15.77
2018-12-24T17:37:01.388Z,13.20
2018-12-24T17:41:14.649Z,14.83
2018-12-24T17:45:27.160Z,15.57
2018-12-24T17:49:40.014Z,13.90
2018-12-24T17:53:52.633Z,13.37
2018-12-24T17:58:07.742Z,14.77
2018-12-24T18:02:23.048Z,13.50
2018-12-24T18:06:38.986Z,13.47
2018-12-24T18:10:54.543Z,15.23
2018-12-24T18:15:10.233Z,16.00
2018-12-24T18:19:27.532Z,18.37
2018-12-24T18:23:42.332Z,13.90
2018-12-24T18:27:57.548Z,14.97
2018-12-24T18:32:12.958Z,16.37
2018-12-24T18:36:27.951Z,16.63
2018-12-24T18:40:43.290Z,16.93
2018-12-24T18:44:57.503Z,17.70
2018-12-24T18:49:12.286Z,18.63
2018-12-24T18:53:27.530Z,17.77
2018-12-24T18:57:42.415Z,18.50
2018-12-24T19:01:54.982Z,20.17
2018-12-24T19:06:07.877Z,19.07
2018-12-24T19:10:20.512Z,17.33
2018-12-24T19:14:32.940Z,19.50
2018-12-24T19:18:45.729Z,18.07
2018-12-24T19:22:58.204Z,17.97
2018-12-24T19:27:10.494Z,19.53
2018-12-24T19:31:23.509Z,20.77
2018-12-24T19:35:36.155Z,19.77
2018-12-24T19:39:49.037Z,18.47
2018-12-24T19:44:02.209Z,20.27
2018-12-24T19:48:14.985Z,20.40
2018-12-24T19:52:28.164Z,21.30
2018-12-24T19:56:40.680Z,20.80
2018-12-24T20:00:53.196Z,21.43
2018-12-24T20:05:05.989Z,20.67
2018-12-24T20:09:18.490Z,21.53
2018-12-24T20:13:32.261Z,21.37
2018-12-24T20:17:45.080Z,20.40
2018-12-24T20:21:57.636Z,19.10
2018-12-24T20:26:09.945Z,20.20
2018-12-24T20:30:22.932Z,20.53
2018-12-24T20:34:35.401Z,18.30
2018-12-24T20:38:47.811Z,19.17
2018-12-24T20:43:02.296Z,19.20
2018-12-24T20:47:16.139Z,18.57
2018-12-24T20:51:29.661Z,19.20
2018-12-24T20:55:42.068Z,19.03
2018-12-24T20:59:55.719Z,20.47
2018-12-24T21:04:08.462Z,18.00
2018-12-24T21:08:21.177Z,19.43
2018-12-24T21:12:33.584Z,22.53
2018-12-24T21:16:45.953Z,22.57
2018-12-24T21:20:58.696Z,23.20
2018-12-24T21:25:11.241Z,21.93
2018-12-24T21:29:23.643Z,22.60
2018-12-24T21:33:36.604Z,21.43
2018-12-24T21:37:49.208Z,20.13
2018-12-24T21:42:02.193Z,20.63
2018-12-24T21:46:14.755Z,18.40
2018-12-24T21:50:27.334Z,22.13
2018-12-24T21:54:41.549Z,22.17
2018-12-24T21:58:55.581Z,24.97
2018-12-24T22:03:08.463Z,22.63
2018-12-24T22:07:21.124Z,24.63
2018-12-24T22:11:33.535Z,23.53
2018-12-24T22:15:45.852Z,23.77
2018-12-24T22:19:58.742Z,24.33
2018-12-24T22:24:11.093Z,23.93
2018-12-24T22:28:23.892Z,24.33
2018-12-24T22:32:36.547Z,22.10
2018-12-24T22:36:48.876Z,23.43
2018-12-24T22:41:01.736Z,22.57
2018-12-24T22:45:14.201Z,22.07
2018-12-24T22:49:26.705Z,20.10
2018-12-24T22:53:39.561Z,20.87
2018-12-24T22:57:52.071Z,18.40
2018-12-24T23:02:05.200Z,19.00
2018-12-24T23:06:17.843Z,17.67
2018-12-24T23:10:30.787Z,16.97
2018-12-24T23:14:43.306Z,17.03
2018-12-24T23:18:56.245Z,16.77
2018-12-24T23:23:09.016Z,16.10
2018-12-24T23:27:21.422Z,17.23
2018-12-24T23:31:34.860Z,17.73
2018-12-24T23:35:47.856Z,18.43
2018-12-24T23:40:00.416Z,17.37
2018-12-24T23:44:12.726Z,17.90
2018-12-24T23:48:25.712Z,17.27
2018-12-24T23:52:38.328Z,19.30
2018-12-24T23:56:51.225Z,18.67
